Flight Track Log - Related Links

Times and Time Zones

All times are in EDT time to prevent confusion due to time zone crossing. See the N2960R flight status page for this flight to view local times or setup timezone preferences in your user account.

Time Position Orientation Groundspeed Altitude Reporting Facility
EDT Latitude Longitude Course Direction KTS MPH feet Rate Location/Type
Sun 05:58:00 PM 41.2472 -70.3911 270° West  Level Estimated
Sun 05:59:00 PM 41.2465 -70.4287 269° West  Level FlightAware Approximate
Sun 06:00:00 PM 41.2458 -70.4662 268° West  Level FlightAware Approximate
Sun 06:01:00 PM 41.2450 -70.5038 268° West  Level FlightAware Approximate
Sun 06:02:00 PM 41.2442 -70.5414 268° West  Level FlightAware Approximate
Sun 06:03:00 PM 41.2434 -70.5789 268° West  Level FlightAware Approximate
Sun 06:04:00 PM 41.2426 -70.6165 268° West  Level FlightAware Approximate
Sun 06:05:00 PM 41.2418 -70.6540 268° West  Level FlightAware Approximate
Sun 06:06:00 PM 41.2410 -70.6916 268° West  Level FlightAware Approximate
Sun 06:07:00 PM 41.2402 -70.7291 267° West  Level Estimated
Sun 06:07:01 PM 41.4161 -70.8622 268° West 129 148 4,300  Level Boston Center
Sun 06:08:00 PM 41.2391 -70.7667 268° West  Level FlightAware Approximate
Sun 06:08:12 PM 41.4064 -70.9178 257° West 143 165 4,300  Level Boston Center
Sun 06:09:00 PM 41.2379 -70.8042 268° West  Level FlightAware Approximate
Sun 06:09:15 PM 41.4217 -70.9564 298° West 118 136 4,400  Level Boston Center
Sun 06:10:00 PM 41.2368 -70.8417 268° West  Level FlightAware Approximate
Sun 06:10:16 PM 41.4347 -71.0003 292° West 123 142 4,500  Level Boston Center
Sun 06:11:00 PM 41.2357 -70.8793 268° West  Level FlightAware Approximate
Sun 06:11:14 PM 41.4433 -71.0389 287° West 120 138 4,500  Level Boston Center
Sun 06:12:00 PM 41.2345 -70.9168 268° West  Level FlightAware Approximate
Sun 06:12:18 PM 41.4503 -71.0886 281° West 120 138 4,500  Level Boston Center
Sun 06:13:18 PM 41.4592 -71.1328 285° West 126 145 4,500  Level Boston Center
Sun 06:14:13 PM 41.4639 -71.1742 279° West 122 140 4,500  Level Boston Center
Sun 06:15:14 PM 41.4622 -71.2214 267° West 123 142 4,500  Level Boston Center
Sun 06:16:15 PM 41.4503 -71.2603 248° West 122 140 4,500  Level Boston Center
Sun 06:17:16 PM 41.4422 -71.3019 256° West 119 137 4,500  Level Boston Center
Sun 06:18:17 PM 41.4303 -71.3436 249° West 124 143 4,500  Level Boston Center
Sun 06:19:12 PM 41.4203 -71.3881 253° West 121 139 4,500  Level Boston Center
Sun 06:20:12 PM 41.4081 -71.4325 250° West 125 144 4,500 -49 Level Boston Center
Sun 06:21:14 PM 41.3981 -71.4772 253° West 122 140 4,400 -49 Descending Boston Center
Sun 06:22:15 PM 41.3881 -71.5186 252° West 124 143 4,400 50 Level Boston Center
Sun 06:23:15 PM 41.3778 -71.5631 253° West 124 143 4,500  Climbing Boston Center
Sun 06:24:21 PM 41.3617 -71.6131 247° West 123 142 4,400 -47 Descending Boston Center
Sun 06:25:22 PM 41.3514 -71.6547 252° West 124 143 4,400 50 Level Boston Center
Sun 06:26:22 PM 41.3414 -71.6964 252° West 122 140 4,500 99 Climbing Boston Center
Sun 06:27:23 PM 41.3333 -71.7461 258° West 132 152 4,600  Climbing Boston Center
Sun 06:28:24 PM 41.3253 -71.7906 256° West 123 142 4,500  Descending Boston Center
Sun 06:29:24 PM 41.3150 -71.8319 252° West 122 140 4,600  Climbing Boston Center
Sun 06:30:22 PM 41.3047 -71.8708 251° West 121 139 4,500  Descending Boston Center
Sun 06:31:28 PM 41.2989 -71.9233 262° West 129 148 4,600  Climbing Boston Center
Sun 06:32:28 PM 41.2950 -71.9703 264° West 123 142 4,500  Descending Boston Center
Sun 06:33:35 PM 41.2889 -72.0203 261° West 125 144 4,600  Climbing Boston Center
Sun 06:34:35 PM 41.2847 -72.0644 263° West 121 139 4,500  Descending Boston Center
Sun 06:36:36 PM 41.2667 -72.1500 254° West 122 140 4,600  Climbing New York TRACON
Sun 06:37:30 PM 41.2667 -72.1833 270° West 127 146 4,500 -53 Descending New York TRACON
Sun 06:38:30 PM 41.2667 -72.2333 270° West 126 145 4,500  Level New York TRACON
Sun 06:39:30 PM 41.2500 -72.2833 246° West 123 142 4,500 50 Level New York TRACON
Sun 06:40:30 PM 41.2500 -72.3333 270° West 122 140 4,600 50 Climbing New York TRACON
Sun 06:41:30 PM 41.2500 -72.3667 270° West 123 142 4,600 -50 Level New York TRACON
Sun 06:42:30 PM 41.2500 -72.4167 270° West 128 147 4,500 -50 Descending New York TRACON
Sun 06:43:30 PM 41.2500 -72.4667 270° West 123 142 4,500  Level New York TRACON
Sun 06:44:30 PM 41.2500 -72.5167 270° West 126 145 4,500  Level New York TRACON
Sun 06:45:30 PM 41.2333 -72.5500 236° Southwest 124 143 4,500  Level New York TRACON
Sun 06:46:30 PM 41.2333 -72.6000 270° West 126 145 4,500  Level New York TRACON
Sun 06:47:30 PM 41.2333 -72.6500 270° West 127 146 4,500  Level New York TRACON
Sun 06:48:36 PM 41.2333 -72.7000 270° West 127 146 4,500 50 Level New York TRACON
Sun 06:49:30 PM 41.2333 -72.7333 270° West 122 140 4,600 -53 Climbing New York TRACON
Sun 06:50:30 PM 41.2333 -72.7833 270° West 129 148 4,400 -200 Descending New York TRACON
Sun 06:52:00 PM 41.1943 -72.8303 222° Southwest  Level FlightAware Approximate
Sun 06:59:00 PM 41.1500 -73.1167 270° West  Level FlightAware Approximate
Sun 07:00:00 PM 41.1635 -73.1262 270° West  Level Estimated
Sun 07:01:00 PM 41.1635 -73.1262 270° West  Level Estimated
Sun 07:02:00 PM 41.1635 -73.1262 270° West  Level Estimated
Sun 07:03:00 PM 41.1635 -73.1262 270° West  Level Estimated
Sun 07:04:00 PM 41.1635 -73.1262 270° West  Level Estimated
Sun 07:05:00 PM 41.1635 -73.1262 270° West  Level Estimated
Sun 07:06:00 PM 41.1635 -73.1262 270° West  Level Estimated
Sun 07:07:00 PM 41.1635 -73.1262 270° West  Level Estimated
Sun 07:08:00 PM 41.1635 -73.1262 270° West  Level Estimated
Sun 07:09:00 PM 41.1635 -73.1262 270° West  Level Estimated

Login

Don't have an account? Register now (free) for customized features, flight alerts, and more!